LFLXLFOA

Guest
Details From LFLX - Chateauroux Deols
To LFOA - AVORD
Flight Number -
Tags generated
Created
Modified
Stats Distance 39 nm / 72 km
Max Altitude 0 ft / 0 m
Waypoints 3
Social Downloads 0
Likes 0
Share VATSIM

Download

Looking for another format? Having issues loading an existing format? Contact us
Advertisement - Login to hide

Notes

Basic altitude profile: - Ascent Rate: 2500ft/min - Ascent Speed: 250kts - Cruise Altitude: 35000ft - Cruise Speed: 420kts - Descent Rate: 1500ft/min - Descent Speed: 250kts Options: - Use NATs: yes - Use PACOTS: yes - Use low airways: yes - Use high airways: yes

Route

LFLX AVD LFOA

ID Type Via Altitude Latitude Longitude Leg Dist Tot Dist Heading (true) Name
O LFLX APT - 0 ft / 0 m 46.86375˚ 1.73167˚ - 0 nm - Chateauroux Deols
AVD VOR - 0 ft / 0 m 47.05808˚ 2.62986˚ 38 nm 38 nm 72° / 73° -
O LFOA APT - 0 ft / 0 m 47.05574˚ 2.63181˚ 0 nm 38 nm 151° / 151° AVORD

Altitude Profile

Advertisement - Login to hide

LFLX

Details ICAO LFLX (CHR)
Name Chateauroux Deols
Region France
Timezone Europe/Paris (UTC+1.0)
Stats Elevation 529 ft / 161 m (AMSL)
Location 46.863750° 1.731667°
Runways 1
Magnetic Variation 0.526° E

METAR

LFLX 170630Z AUTO 27006KT 9999 OVC005 03/03 Q1026 TEMPO 2000 BR

Decode

TAF

TAF TAF LFLX 170500Z 1706/1812 26007KT 9999 BKN012 TEMPO 1706/1713 4000 BR OVC004 PROB30 TEMPO 1706/1710 2000 BR OVC002 BECMG 1714/1716 BKN040 TEMPO 1718/1721 -RA BKN008 BECMG 1721/1724 20012KT -RA OVC008 TEMPO 1722/1811 2000 -RADZ OVC002 PROB30 TEMPO 1804/1809 2500 RA OVC003

Decode

Departure Runways

ID Width Length Bearing (true) Bearing (mag) Surface Threshold Offset Overrun Length
04 148 ft / 45 m 11,473 ft / 3,497 m 32.92° 32.39° Concrete 0 ft / 0 m 0 ft / 0 m
22 148 ft / 45 m 11,473 ft / 3,497 m 212.94° 212.41° Concrete 0 ft / 0 m 0 ft / 0 m

LFOA

Details ICAO LFOA
Name AVORD
Region France
Timezone Europe/Paris (UTC+1.0)
Stats Elevation 580 ft / 177 m (AMSL)
Location 47.055737° 2.631807°
Runways 1
Magnetic Variation 0.775° E

METAR

LFOA 170630Z AUTO 29007KT 9999 OVC005 03/03 Q1024

Decode

TAF

Not found

Destination Runways

ID Width Length Bearing (true) Bearing (mag) Surface Threshold Offset Overrun Length
06 148 ft / 45 m 11,471 ft / 3,496 m 60.27° 59.50° Asphalt 0 ft / 0 m 1,312 ft / 400 m
24 148 ft / 45 m 11,471 ft / 3,496 m 240.30° 239.53° Asphalt 0 ft / 0 m 1,319 ft / 402 m

Approach Navaids

Runway Type Ident Frequency Range Bearing (true) Bearing (mag) Slope Elevation
06 Localiser AV 110.70 MHz 18 nm / 33 km 60.32° 59.55° - 577 ft / 176 m (AMSL)
06 Glidescope AV 110.70 MHz 10 nm / 19 km 60.29° 59.51° 3.00° 577 ft / 176 m (AMSL)
24 Localiser AV 110.70 MHz 18 nm / 33 km 240.26° 239.49° - 562 ft / 171 m (AMSL)
24 Glidescope AV 110.70 MHz 10 nm / 19 km 240.29° 239.51° 3.00° 633 ft / 193 m (AMSL)